Riyadh/Khaled, Saudi Arabia
Current Conditions -  °F | °C
As of 1:00 PM on Thursday 18 Dec 2014 (Local Time) from OERK Reporting Station
Clear Clear  
Wind Chill: 70°   Ceiling: Unl
Heat Index: 70°   Visibility: 6mi
Dew Point: 36°   Wind: 5mph
Humidity: 28%   Direction: 330°NNW
Pressure: 30.24"   Gusts: NA
Location:  24.93°N, 46.72°E
Report Text: OERK 181000Z 33004KT CAVOK 21/02 Q1024 NOSIG
Loading
Personal Weather Stations






























Interactive Weather Map New forecast layout! Learn more

10-Day Weather Forecast

Advertisements
Track Severe Weather on mobile